Calgary International Airport

CYYC · 艾伯塔, 加拿大

罗盘
风向 的 风向 150° Calgary International Airport 8/26
风: 5 kt, 2 beaufort

3 kt

4 kt
改变
0 5.000 10.000 15.000 20.000
OVC 13.000 ft
METAR CYYC 030200Z 15005KT 15SM OVC130 M17/M22 A2999 RMK AC8 SLP261

METAR Calgary International Airport - CYYC/YYC

Calgary International Airport是,加拿大中的大型机场。 该机场有5条跑道: 8/26, 11/29, 17L/35R, 17R/35L 和 17/35. 该领域的国际民航组织标志是CYYC 它的国际航空运输协会代码是YYC.

这份报告是针对2022年12月2日 19:00, 当地时间在Calgary International Airport进行的。

机场观察

风向为150°,速度为5 kt。

可见度为15 mi。

有乌云密布在13.000 ft的高度。 破损或更高的上限为13.000 ft。

温度为-17 °C,阵风为-26 °C。 露点为-22 °C,相对湿度为65%。 海平面上的气压为29,99 inHg (QNH)。

白天

今天,太阳从08:20升起,在16:31降落。 这适用于Calgary International Airport,世界夏令时可能有所不同。 当地时间与世界标准时间之间的时差为-7 小时。 当前,没有夏令时有效。

公司介绍

我们没有关于这个机场的公司信息。

体会

到Vliegles.nl去找飞行课程,跳伞和其他飞行体验。 浏览页面,了解Calgary International Airport附近所有可用的活动。 你也可以使用搜索功能来寻找你所在地附近的特定飞行课程、跳伞或其他飞行体验。

跑道

Id 标题 侧风 逆风 侧风 %
8/26 090°-270° 4 kt 3 kt 87 %
11/29 120°-300° 3 kt 4 kt 50 %
17L/35R 180°-360° 3 kt 4 kt 50 %
17R/35L 180°-360° 3 kt 4 kt 50 %
17/35 180°-360° 3 kt 4 kt 50 %

逆风成分最大的方向会被突出显示,并用于横风计算。 这并不一定意味着这个方向在使用。

乌云

13.000 ft OVC 乌云密布

温度 & 天气

温度 -17 °C
露点 -22 °C
相对湿度 65%
风寒 -26 °C
Kp-index 1 (0-9)

评论

SLP261海平面压力为30,30 inHg (30,30 inHg)
AC8

白天

日出
08:20 (13:05)
中午
12:25
日落
16:31

小工具

你想在你的网站上有一个关于Calgary International Airport的当前航空天气(METAR)的小部件吗?

显示HTML代码

我们和第三方通过cookies跟踪您在我们网站上的互联网行为。如果你继续,我们认为你同意我们的饼干政策